Recluse, Wyoming
Current Conditions -  °F | °C
As of 2:53 AM on Friday 21 Nov 2014 (Local Time) from KGCC Reporting Station
Scattered Clouds Scattered Clouds  
Wind Chill: 27°   Ceiling: Unl
Heat Index: 27°   Visibility: 10mi
Dew Point: 20°   Wind: 3mph
Humidity: 75%   Direction: 40°NE
Pressure: 29.84"   Gusts: NA
Location:  44.74°N, 105.71°W
Report Text: KGCC 210953Z AUTO 04003KT 10SM SCT110 M03/M07 A2984 RMK AO2 SLP120 T10281067
Loading
Personal Weather Stations






























Interactive Weather Map New forecast layout! Learn more

10-Day Weather Forecast

Advertisements
Track Severe Weather on mobile